Pagrindinis puslapis
METAR-TAF:

METAR-TAF

Oro uostai :

Mo i Rana, Norvegija

platuma: 66-22N, ilguma: 014-18E, Aukštis: 7 m

Dabartinis oras

Ataskaita buvo paskelbta 16 minutes, ne 22:20 UTC
Vėjas 4 kt iš Rytų/Pietryčių, svyruoja nuo Šiaurės Rytų ir Pietų
Temperatūra 13°C
Drėgmė 77%
Slėgis 1010 hPa
Matomumas 10 km arba daugiau

METAR: ENRA 162220Z AUTO 12004KT 050V170 9999 FEW065/// SCT089/// 13/09 Q1010

Laikas: 00:36 (22:36 UTC)

Prognozė

Ataskaita buvo paskelbta 8 valandos ir 36 minutes, ne 14:00 UTC
Prognozė galioja nuo 16 metu 15 UTC su 16 metu 22 UTC
Vėjas 8 kt iš Pietų/Pietryčių
Matomumas 10 km arba daugiau
Mažai debesys ne aukštis 3500 ft
Išsisklaidę debesys ne aukštis 6000 ft
Laikinai
nuo 16 metu 16 UTC su 16 metu 20 UTC
Išsisklaidę debesys ne aukštis 4500 ft, Liūtiniai kamuoliniai debesys.
lietus,

TAF: ENRA 161400Z 1615/1622 16008KT 9999 FEW035 SCT060 TEMPO 1616/1620 SHRA SCT045CB

Orai ataskaitas ir orų prognozės (METAR, TAF).

turimą stotys yra geltonos ir raudonos taškus žemėlapyje.

Perkelti pele per norėdami pamatyti stoties vardą.

Tada spustelėkite, norėdami matyti oro stebėjimo ir prognozės.

Norėdami pakeisti žemėlapį: spustelėkite ant žalios mygtukų su juodo kryžiaus žemyn,; žalią mygtuką su brūkšneliu, jei norite nutolinti; arba žalių rodyklių gretimoms žemėlapius.


METAR-TAF: